sensor_id;sensor_type;location;lat;lon;timestamp;pressure;altitude;pressure_sealevel;temperature;humidity
73974;BME280;62336;-26.094;27.994;2023-03-11T00:00:08;84832.07;;;33.73;21.42
73974;BME280;62336;-26.094;27.994;2023-03-11T00:02:33;84835.68;;;33.81;21.50
73974;BME280;62336;-26.094;27.994;2023-03-11T00:04:59;84833.80;;;33.78;21.63
73974;BME280;62336;-26.094;27.994;2023-03-11T00:07:24;84827.91;;;33.57;21.73
73974;BME280;62336;-26.094;27.994;2023-03-11T00:09:50;84825.15;;;33.60;21.82
73974;BME280;62336;-26.094;27.994;2023-03-11T00:12:16;84828.23;;;33.53;21.91
73974;BME280;62336;-26.094;27.994;2023-03-11T00:14:41;84825.93;;;33.67;21.74
73974;BME280;62336;-26.094;27.994;2023-03-11T00:17:06;84824.74;;;33.52;21.87
73974;BME280;62336;-26.094;27.994;2023-03-11T00:19:32;84820.97;;;33.46;21.87
73974;BME280;62336;-26.094;27.994;2023-03-11T00:21:58;84817.77;;;33.23;21.99
73974;BME280;62336;-26.094;27.994;2023-03-11T00:24:23;84814.01;;;33.59;21.80
73974;BME280;62336;-26.094;27.994;2023-03-11T00:26:48;84813.25;;;33.53;21.70
73974;BME280;62336;-26.094;27.994;2023-03-11T00:29:13;84811.99;;;33.73;21.97
73974;BME280;62336;-26.094;27.994;2023-03-11T00:31:38;84814.22;;;34.00;21.39
73974;BME280;62336;-26.094;27.994;2023-03-11T00:34:05;84821.09;;;33.78;21.34
73974;BME280;62336;-26.094;27.994;2023-03-11T00:36:31;84820.32;;;33.64;21.75
73974;BME280;62336;-26.094;27.994;2023-03-11T00:38:54;84823.00;;;33.32;22.03
73974;BME280;62336;-26.094;27.994;2023-03-11T00:41:19;84826.93;;;33.18;21.80
73974;BME280;62336;-26.094;27.994;2023-03-11T00:43:45;84828.50;;;32.49;22.33
73974;BME280;62336;-26.094;27.994;2023-03-11T00:46:11;84829.97;;;33.18;22.07
73974;BME280;62336;-26.094;27.994;2023-03-11T00:48:37;84829.37;;;33.35;22.05
73974;BME280;62336;-26.094;27.994;2023-03-11T00:51:02;84830.94;;;33.46;21.98
73974;BME280;62336;-26.094;27.994;2023-03-11T00:53:28;84831.47;;;33.01;22.02
73974;BME280;62336;-26.094;27.994;2023-03-11T00:55:53;84828.93;;;33.18;22.38
73974;BME280;62336;-26.094;27.994;2023-03-11T00:58:18;84826.46;;;33.25;22.12
73974;BME280;62336;-26.094;27.994;2023-03-11T01:00:44;84827.22;;;32.40;22.81
73974;BME280;62336;-26.094;27.994;2023-03-11T01:03:10;84829.57;;;32.73;22.65
73974;BME280;62336;-26.094;27.994;2023-03-11T01:05:35;84829.92;;;32.98;22.32
73974;BME280;62336;-26.094;27.994;2023-03-11T01:08:01;84827.91;;;32.79;22.37
73974;BME280;62336;-26.094;27.994;2023-03-11T01:10:27;84826.67;;;33.30;22.17
73974;BME280;62336;-26.094;27.994;2023-03-11T01:12:52;84827.69;;;33.29;22.10
73974;BME280;62336;-26.094;27.994;2023-03-11T01:15:20;84827.81;;;32.62;22.42
73974;BME280;62336;-26.094;27.994;2023-03-11T01:17:42;84828.09;;;32.68;22.30
73974;BME280;62336;-26.094;27.994;2023-03-11T01:20:09;84830.10;;;32.56;22.59
73974;BME280;62336;-26.094;27.994;2023-03-11T01:22:34;84830.59;;;32.87;22.45
73974;BME280;62336;-26.094;27.994;2023-03-11T01:24:59;84827.52;;;33.39;22.16
73974;BME280;62336;-26.094;27.994;2023-03-11T01:27:24;84825.09;;;32.94;22.46
73974;BME280;62336;-26.094;27.994;2023-03-11T01:29:49;84822.57;;;33.27;22.30
73974;BME280;62336;-26.094;27.994;2023-03-11T01:32:14;84823.35;;;32.84;22.22
73974;BME280;62336;-26.094;27.994;2023-03-11T01:34:39;84821.36;;;33.12;22.33
73974;BME280;62336;-26.094;27.994;2023-03-11T01:37:04;84819.63;;;32.77;22.28
73974;BME280;62336;-26.094;27.994;2023-03-11T01:39:30;84821.26;;;32.79;22.15
73974;BME280;62336;-26.094;27.994;2023-03-11T01:41:54;84825.23;;;33.14;22.03
73974;BME280;62336;-26.094;27.994;2023-03-11T01:44:20;84825.76;;;33.10;22.11
73974;BME280;62336;-26.094;27.994;2023-03-11T01:49:12;84833.05;;;32.87;22.01
73974;BME280;62336;-26.094;27.994;2023-03-11T01:51:39;84830.25;;;32.64;22.48
73974;BME280;62336;-26.094;27.994;2023-03-11T01:54:06;84831.12;;;32.43;22.53
73974;BME280;62336;-26.094;27.994;2023-03-11T01:56:29;84830.46;;;33.18;22.24
73974;BME280;62336;-26.094;27.994;2023-03-11T01:58:55;84828.63;;;32.80;22.45
73974;BME280;62336;-26.094;27.994;2023-03-11T02:01:21;84826.70;;;32.64;22.57
73974;BME280;62336;-26.094;27.994;2023-03-11T02:03:46;84823.72;;;33.00;22.34
73974;BME280;62336;-26.094;27.994;2023-03-11T02:06:15;84821.05;;;32.50;22.58
73974;BME280;62336;-26.094;27.994;2023-03-11T02:08:38;84819.93;;;32.45;22.96
73974;BME280;62336;-26.094;27.994;2023-03-11T02:11:05;84819.66;;;32.73;22.65
73974;BME280;62336;-26.094;27.994;2023-03-11T02:13:29;84816.05;;;32.95;22.62
73974;BME280;62336;-26.094;27.994;2023-03-11T02:15:55;84816.83;;;33.10;22.39
73974;BME280;62336;-26.094;27.994;2023-03-11T02:18:21;84817.32;;;33.15;22.35
73974;BME280;62336;-26.094;27.994;2023-03-11T02:20:51;84817.82;;;33.38;22.41
73974;BME280;62336;-26.094;27.994;2023-03-11T02:23:12;84821.10;;;33.08;22.44
73974;BME280;62336;-26.094;27.994;2023-03-11T02:25:42;84826.13;;;32.84;22.43
73974;BME280;62336;-26.094;27.994;2023-03-11T02:28:04;84831.52;;;32.74;22.55
73974;BME280;62336;-26.094;27.994;2023-03-11T02:30:29;84834.85;;;32.73;22.57
73974;BME280;62336;-26.094;27.994;2023-03-11T02:32:54;84841.20;;;31.99;22.75
73974;BME280;62336;-26.094;27.994;2023-03-11T02:35:19;84841.42;;;32.36;22.75
73974;BME280;62336;-26.094;27.994;2023-03-11T02:37:46;84841.26;;;32.24;22.97
73974;BME280;62336;-26.094;27.994;2023-03-11T02:40:32;84839.78;;;32.21;22.75
73974;BME280;62336;-26.094;27.994;2023-03-11T02:42:36;84835.35;;;31.66;23.14
73974;BME280;62336;-26.094;27.994;2023-03-11T02:45:07;84834.26;;;32.20;23.04
73974;BME280;62336;-26.094;27.994;2023-03-11T02:47:29;84834.47;;;32.02;23.38
73974;BME280;62336;-26.094;27.994;2023-03-11T02:49:55;84836.88;;;32.35;23.11
73974;BME280;62336;-26.094;27.994;2023-03-11T02:52:20;84835.00;;;32.13;23.24
73974;BME280;62336;-26.094;27.994;2023-03-11T02:54:45;84836.56;;;32.52;23.01
73974;BME280;62336;-26.094;27.994;2023-03-11T02:57:11;84834.10;;;32.10;23.29
73974;BME280;62336;-26.094;27.994;2023-03-11T02:59:37;84833.93;;;32.33;22.93
73974;BME280;62336;-26.094;27.994;2023-03-11T03:02:02;84836.51;;;32.52;23.02
73974;BME280;62336;-26.094;27.994;2023-03-11T03:04:30;84839.89;;;32.48;23.06
73974;BME280;62336;-26.094;27.994;2023-03-11T03:06:54;84846.03;;;32.33;22.81
73974;BME280;62336;-26.094;27.994;2023-03-11T03:09:20;84849.47;;;32.06;22.97
73974;BME280;62336;-26.094;27.994;2023-03-11T03:11:45;84851.07;;;32.23;22.84
73974;BME280;62336;-26.094;27.994;2023-03-11T03:14:10;84852.00;;;32.40;23.11
73974;BME280;62336;-26.094;27.994;2023-03-11T03:16:36;84853.75;;;32.68;22.81
73974;BME280;62336;-26.094;27.994;2023-03-11T03:19:01;84849.97;;;31.89;23.12
73974;BME280;62336;-26.094;27.994;2023-03-11T03:21:28;84851.65;;;31.98;23.30
73974;BME280;62336;-26.094;27.994;2023-03-11T03:23:53;84853.95;;;32.22;23.50
73974;BME280;62336;-26.094;27.994;2023-03-11T03:26:19;84852.80;;;32.16;23.50
73974;BME280;62336;-26.094;27.994;2023-03-11T03:28:45;84857.69;;;32.26;23.44
73974;BME280;62336;-26.094;27.994;2023-03-11T03:31:11;84858.86;;;32.43;23.18
73974;BME280;62336;-26.094;27.994;2023-03-11T03:33:37;84862.10;;;31.79;23.25
73974;BME280;62336;-26.094;27.994;2023-03-11T03:36:06;84862.99;;;32.11;23.25
73974;BME280;62336;-26.094;27.994;2023-03-11T03:38:28;84868.45;;;32.36;23.23
73974;BME280;62336;-26.094;27.994;2023-03-11T03:40:53;84875.50;;;31.92;23.35
73974;BME280;62336;-26.094;27.994;2023-03-11T03:43:19;84877.44;;;31.84;23.59
73974;BME280;62336;-26.094;27.994;2023-03-11T03:45:52;84876.64;;;32.22;23.36
73974;BME280;62336;-26.094;27.994;2023-03-11T03:48:11;84879.22;;;31.97;23.47
73974;BME280;62336;-26.094;27.994;2023-03-11T03:50:39;84876.52;;;32.10;23.37
73974;BME280;62336;-26.094;27.994;2023-03-11T03:53:02;84877.49;;;32.06;23.45
73974;BME280;62336;-26.094;27.994;2023-03-11T03:55:28;84879.91;;;32.16;23.25
73974;BME280;62336;-26.094;27.994;2023-03-11T03:57:54;84877.00;;;32.11;23.54
73974;BME280;62336;-26.094;27.994;2023-03-11T04:00:20;84879.53;;;32.02;23.55
73974;BME280;62336;-26.094;27.994;2023-03-11T04:02:45;84883.25;;;31.89;23.58
73974;BME280;62336;-26.094;27.994;2023-03-11T04:05:11;84881.84;;;32.04;23.40
73974;BME280;62336;-26.094;27.994;2023-03-11T04:07:37;84880.10;;;32.03;23.44
73974;BME280;62336;-26.094;27.994;2023-03-11T04:10:04;84877.45;;;32.44;23.35
73974;BME280;62336;-26.094;27.994;2023-03-11T04:12:29;84874.30;;;32.31;23.35
73974;BME280;62336;-26.094;27.994;2023-03-11T04:14:55;84876.71;;;31.97;23.16
73974;BME280;62336;-26.094;27.994;2023-03-11T04:17:20;84874.31;;;32.14;23.40
73974;BME280;62336;-26.094;27.994;2023-03-11T04:19:45;84876.99;;;32.25;23.27
73974;BME280;62336;-26.094;27.994;2023-03-11T04:22:11;84877.61;;;32.54;22.92
73974;BME280;62336;-26.094;27.994;2023-03-11T04:24:37;84878.73;;;31.96;23.55
73974;BME280;62336;-26.094;27.994;2023-03-11T04:27:03;84877.96;;;32.24;23.31
73974;BME280;62336;-26.094;27.994;2023-03-11T04:29:29;84873.82;;;32.16;23.41
73974;BME280;62336;-26.094;27.994;2023-03-11T04:31:54;84871.99;;;32.31;23.35
73974;BME280;62336;-26.094;27.994;2023-03-11T04:34:20;84870.30;;;32.38;23.28
73974;BME280;62336;-26.094;27.994;2023-03-11T04:36:46;84867.78;;;32.01;23.43
73974;BME280;62336;-26.094;27.994;2023-03-11T04:39:12;84870.34;;;32.11;23.30
73974;BME280;62336;-26.094;27.994;2023-03-11T04:41:37;84873.65;;;32.08;23.21
73974;BME280;62336;-26.094;27.994;2023-03-11T04:44:03;84872.81;;;32.02;23.53
73974;BME280;62336;-26.094;27.994;2023-03-11T04:46:30;84871.61;;;31.79;23.43
73974;BME280;62336;-26.094;27.994;2023-03-11T04:48:55;84873.33;;;32.33;23.41
73974;BME280;62336;-26.094;27.994;2023-03-11T04:51:21;84875.17;;;32.21;23.05
73974;BME280;62336;-26.094;27.994;2023-03-11T04:53:46;84875.43;;;32.05;23.44
73974;BME280;62336;-26.094;27.994;2023-03-11T04:56:12;84876.08;;;32.23;23.28
73974;BME280;62336;-26.094;27.994;2023-03-11T04:58:38;84874.55;;;31.93;23.47
73974;BME280;62336;-26.094;27.994;2023-03-11T05:01:04;84872.04;;;32.30;23.24
73974;BME280;62336;-26.094;27.994;2023-03-11T05:03:29;84872.52;;;32.34;23.42
73974;BME280;62336;-26.094;27.994;2023-03-11T05:05:55;84872.53;;;32.17;23.45
73974;BME280;62336;-26.094;27.994;2023-03-11T05:08:21;84874.02;;;32.43;23.51
73974;BME280;62336;-26.094;27.994;2023-03-11T05:10:46;84872.67;;;32.45;23.18
73974;BME280;62336;-26.094;27.994;2023-03-11T05:13:12;84875.29;;;32.60;22.70
73974;BME280;62336;-26.094;27.994;2023-03-11T05:15:38;84871.00;;;32.98;22.84
73974;BME280;62336;-26.094;27.994;2023-03-11T05:18:04;84869.21;;;32.56;22.96
73974;BME280;62336;-26.094;27.994;2023-03-11T05:20:29;84870.86;;;32.59;23.11
73974;BME280;62336;-26.094;27.994;2023-03-11T05:22:54;84874.05;;;32.48;22.96
73974;BME280;62336;-26.094;27.994;2023-03-11T05:25:20;84878.25;;;33.05;22.26
73974;BME280;62336;-26.094;27.994;2023-03-11T05:27:46;84886.54;;;32.81;22.49
73974;BME280;62336;-26.094;27.994;2023-03-11T05:30:11;84894.92;;;32.78;22.55
73974;BME280;62336;-26.094;27.994;2023-03-11T05:32:36;84900.94;;;32.82;22.96
73974;BME280;62336;-26.094;27.994;2023-03-11T05:35:02;84907.43;;;32.82;22.66
73974;BME280;62336;-26.094;27.994;2023-03-11T05:37:30;84913.22;;;32.77;22.78
73974;BME280;62336;-26.094;27.994;2023-03-11T05:39:54;84916.92;;;32.81;22.65
73974;BME280;62336;-26.094;27.994;2023-03-11T05:42:20;84916.52;;;33.06;22.38
73974;BME280;62336;-26.094;27.994;2023-03-11T05:44:45;84917.53;;;33.21;22.57
73974;BME280;62336;-26.094;27.994;2023-03-11T05:47:11;84919.52;;;33.21;22.57
73974;BME280;62336;-26.094;27.994;2023-03-11T05:49:37;84925.70;;;33.11;22.56
73974;BME280;62336;-26.094;27.994;2023-03-11T05:52:03;84931.86;;;33.01;22.39
73974;BME280;62336;-26.094;27.994;2023-03-11T05:54:29;84936.52;;;32.88;22.21
73974;BME280;62336;-26.094;27.994;2023-03-11T05:56:54;84938.83;;;33.50;22.19
73974;BME280;62336;-26.094;27.994;2023-03-11T05:59:19;84941.10;;;33.31;22.03
73974;BME280;62336;-26.094;27.994;2023-03-11T06:01:45;84943.89;;;33.45;21.77
73974;BME280;62336;-26.094;27.994;2023-03-11T06:04:11;84938.37;;;33.38;21.72
73974;BME280;62336;-26.094;27.994;2023-03-11T06:06:38;84939.43;;;33.27;21.98
73974;BME280;62336;-26.094;27.994;2023-03-11T06:09:02;84937.97;;;33.76;21.10
73974;BME280;62336;-26.094;27.994;2023-03-11T06:11:34;84937.40;;;33.23;21.75
73974;BME280;62336;-26.094;27.994;2023-03-11T06:13:55;84940.61;;;33.53;21.69
73974;BME280;62336;-26.094;27.994;2023-03-11T06:16:20;84941.49;;;33.60;21.70
73974;BME280;62336;-26.094;27.994;2023-03-11T06:18:45;84946.57;;;33.25;21.78
73974;BME280;62336;-26.094;27.994;2023-03-11T06:21:16;84947.11;;;33.23;22.20
73974;BME280;62336;-26.094;27.994;2023-03-11T06:23:36;84940.43;;;33.62;21.42
73974;BME280;62336;-26.094;27.994;2023-03-11T06:26:04;84938.80;;;33.40;21.68
73974;BME280;62336;-26.094;27.994;2023-03-11T06:28:30;84936.18;;;33.78;21.57
73974;BME280;62336;-26.094;27.994;2023-03-11T06:30:55;84936.51;;;33.88;21.55
73974;BME280;62336;-26.094;27.994;2023-03-11T06:33:20;84937.67;;;34.35;20.99
73974;BME280;62336;-26.094;27.994;2023-03-11T06:35:56;84932.33;;;34.55;20.26
73974;BME280;62336;-26.094;27.994;2023-03-11T06:38:12;84931.41;;;34.76;20.18
73974;BME280;62336;-26.094;27.994;2023-03-11T06:40:38;84926.90;;;34.71;20.25
73974;BME280;62336;-26.094;27.994;2023-03-11T06:43:03;84924.54;;;34.66;20.24
73974;BME280;62336;-26.094;27.994;2023-03-11T06:45:29;84923.34;;;33.90;20.95
73974;BME280;62336;-26.094;27.994;2023-03-11T06:47:55;84924.00;;;34.26;20.66
73974;BME280;62336;-26.094;27.994;2023-03-11T06:50:20;84922.98;;;34.50;20.43
73974;BME280;62336;-26.094;27.994;2023-03-11T06:52:45;84925.18;;;34.51;20.58
73974;BME280;62336;-26.094;27.994;2023-03-11T06:55:12;84927.13;;;34.50;20.59
73974;BME280;62336;-26.094;27.994;2023-03-11T06:57:37;84933.15;;;34.47;20.47
73974;BME280;62336;-26.094;27.994;2023-03-11T07:00:03;84932.49;;;34.24;20.98
73974;BME280;62336;-26.094;27.994;2023-03-11T07:02:29;84934.17;;;34.87;20.13
73974;BME280;62336;-26.094;27.994;2023-03-11T07:04:53;84932.80;;;34.68;20.08
73974;BME280;62336;-26.094;27.994;2023-03-11T07:07:19;84933.90;;;34.32;20.70
73974;BME280;62336;-26.094;27.994;2023-03-11T07:09:45;84930.59;;;34.41;20.23
73974;BME280;62336;-26.094;27.994;2023-03-11T07:12:11;84930.69;;;34.55;20.04
73974;BME280;62336;-26.094;27.994;2023-03-11T07:14:37;84930.04;;;35.18;19.59
73974;BME280;62336;-26.094;27.994;2023-03-11T07:17:03;84933.15;;;34.65;19.87
73974;BME280;62336;-26.094;27.994;2023-03-11T07:19:29;84933.03;;;35.03;19.26
73974;BME280;62336;-26.094;27.994;2023-03-11T07:21:54;84932.18;;;34.98;19.29
73974;BME280;62336;-26.094;27.994;2023-03-11T07:24:21;84934.45;;;35.36;19.00
73974;BME280;62336;-26.094;27.994;2023-03-11T07:26:46;84929.10;;;35.66;18.83
73974;BME280;62336;-26.094;27.994;2023-03-11T07:29:12;84926.62;;;35.53;18.95
73974;BME280;62336;-26.094;27.994;2023-03-11T07:31:38;84923.31;;;34.93;19.60
73974;BME280;62336;-26.094;27.994;2023-03-11T07:34:05;84923.55;;;35.44;19.34
73974;BME280;62336;-26.094;27.994;2023-03-11T07:36:30;84926.90;;;35.41;19.75
73974;BME280;62336;-26.094;27.994;2023-03-11T07:38:55;84922.69;;;35.85;18.48
73974;BME280;62336;-26.094;27.994;2023-03-11T07:41:19;84921.64;;;35.40;18.47
73974;BME280;62336;-26.094;27.994;2023-03-11T07:43:45;84920.59;;;35.71;18.88
73974;BME280;62336;-26.094;27.994;2023-03-11T07:46:13;84925.48;;;35.63;18.60
73974;BME280;62336;-26.094;27.994;2023-03-11T07:48:38;84923.30;;;36.05;18.07
73974;BME280;62336;-26.094;27.994;2023-03-11T07:51:02;84919.45;;;36.18;17.74
73974;BME280;62336;-26.094;27.994;2023-03-11T07:53:27;84916.79;;;35.92;18.38
73974;BME280;62336;-26.094;27.994;2023-03-11T07:55:55;84918.36;;;35.70;18.28
73974;BME280;62336;-26.094;27.994;2023-03-11T07:58:18;84915.73;;;35.97;17.76
73974;BME280;62336;-26.094;27.994;2023-03-11T08:00:44;84916.09;;;35.94;17.86
73974;BME280;62336;-26.094;27.994;2023-03-11T08:03:09;84912.45;;;35.89;17.92
73974;BME280;62336;-26.094;27.994;2023-03-11T08:05:35;84915.24;;;36.36;18.15
73974;BME280;62336;-26.094;27.994;2023-03-11T08:08:01;84914.40;;;36.13;19.09
73974;BME280;62336;-26.094;27.994;2023-03-11T08:10:27;84912.07;;;36.03;18.21
73974;BME280;62336;-26.094;27.994;2023-03-11T08:12:52;84919.17;;;36.18;18.06
73974;BME280;62336;-26.094;27.994;2023-03-11T08:15:18;84916.59;;;36.65;17.88
73974;BME280;62336;-26.094;27.994;2023-03-11T08:17:43;84916.44;;;36.39;17.98
73974;BME280;62336;-26.094;27.994;2023-03-11T08:20:10;84921.11;;;36.69;18.22
73974;BME280;62336;-26.094;27.994;2023-03-11T08:22:34;84918.84;;;36.71;17.58
73974;BME280;62336;-26.094;27.994;2023-03-11T08:24:59;84919.03;;;36.24;17.62
73974;BME280;62336;-26.094;27.994;2023-03-11T08:27:27;84920.69;;;36.61;17.65
73974;BME280;62336;-26.094;27.994;2023-03-11T08:29:50;84918.07;;;36.66;17.43
73974;BME280;62336;-26.094;27.994;2023-03-11T08:32:15;84918.20;;;36.93;17.91
73974;BME280;62336;-26.094;27.994;2023-03-11T08:34:41;84911.99;;;37.17;17.60
73974;BME280;62336;-26.094;27.994;2023-03-11T08:37:08;84914.12;;;37.08;17.58
73974;BME280;62336;-26.094;27.994;2023-03-11T08:39:32;84909.86;;;37.17;17.93
73974;BME280;62336;-26.094;27.994;2023-03-11T08:41:58;84913.75;;;37.20;17.60
73974;BME280;62336;-26.094;27.994;2023-03-11T08:44:24;84911.85;;;37.37;17.63
73974;BME280;62336;-26.094;27.994;2023-03-11T08:46:50;84912.47;;;37.30;17.64
73974;BME280;62336;-26.094;27.994;2023-03-11T08:49:15;84909.91;;;37.39;17.61
73974;BME280;62336;-26.094;27.994;2023-03-11T08:51:41;84908.60;;;37.57;17.42
73974;BME280;62336;-26.094;27.994;2023-03-11T08:54:06;84909.23;;;37.44;17.63
73974;BME280;62336;-26.094;27.994;2023-03-11T08:56:31;84903.66;;;37.92;17.61
73974;BME280;62336;-26.094;27.994;2023-03-11T08:58:57;84903.05;;;38.02;17.62
73974;BME280;62336;-26.094;27.994;2023-03-11T09:01:22;84894.19;;;37.55;18.26
73974;BME280;62336;-26.094;27.994;2023-03-11T09:03:48;84893.68;;;37.97;17.93
73974;BME280;62336;-26.094;27.994;2023-03-11T09:06:14;84895.67;;;37.92;17.61
73974;BME280;62336;-26.094;27.994;2023-03-11T09:08:38;84891.49;;;37.98;16.81
73974;BME280;62336;-26.094;27.994;2023-03-11T09:11:03;84885.91;;;38.59;16.94
73974;BME280;62336;-26.094;27.994;2023-03-11T09:13:29;84882.69;;;37.82;17.29
73974;BME280;62336;-26.094;27.994;2023-03-11T09:15:54;84889.13;;;37.94;17.59
73974;BME280;62336;-26.094;27.994;2023-03-11T09:18:20;84888.90;;;38.04;16.86
73974;BME280;62336;-26.094;27.994;2023-03-11T09:20:45;84885.94;;;38.28;17.06
73974;BME280;62336;-26.094;27.994;2023-03-11T09:23:12;84875.58;;;38.23;16.49
73974;BME280;62336;-26.094;27.994;2023-03-11T09:25:35;84873.20;;;38.21;16.81
73974;BME280;62336;-26.094;27.994;2023-03-11T09:28:00;84871.40;;;38.45;16.89
73974;BME280;62336;-26.094;27.994;2023-03-11T09:30:25;84867.17;;;38.41;16.90
73974;BME280;62336;-26.094;27.994;2023-03-11T09:32:50;84863.53;;;38.11;18.04
73974;BME280;62336;-26.094;27.994;2023-03-11T09:35:15;84860.35;;;38.61;17.14
73974;BME280;62336;-26.094;27.994;2023-03-11T09:37:40;84856.75;;;38.43;17.11
73974;BME280;62336;-26.094;27.994;2023-03-11T09:40:08;84856.94;;;38.76;16.98
73974;BME280;62336;-26.094;27.994;2023-03-11T09:42:38;84851.79;;;38.76;16.59
73974;BME280;62336;-26.094;27.994;2023-03-11T09:45:01;84847.03;;;38.82;16.21
73974;BME280;62336;-26.094;27.994;2023-03-11T09:47:32;84848.77;;;39.18;15.94
73974;BME280;62336;-26.094;27.994;2023-03-11T09:49:57;84845.40;;;38.62;16.64
73974;BME280;62336;-26.094;27.994;2023-03-11T09:52:13;84846.56;;;38.75;16.39
73974;BME280;62336;-26.094;27.994;2023-03-11T09:54:39;84843.24;;;38.92;15.93
73974;BME280;62336;-26.094;27.994;2023-03-11T09:57:02;84840.11;;;39.16;15.77
73974;BME280;62336;-26.094;27.994;2023-03-11T09:59:30;84842.56;;;39.24;15.96
73974;BME280;62336;-26.094;27.994;2023-03-11T10:01:51;84844.20;;;39.28;15.61
73974;BME280;62336;-26.094;27.994;2023-03-11T10:04:20;84834.47;;;39.17;15.56
73974;BME280;62336;-26.094;27.994;2023-03-11T10:06:44;84830.15;;;39.30;15.07
73974;BME280;62336;-26.094;27.994;2023-03-11T10:09:18;84825.81;;;39.69;15.01
73974;BME280;62336;-26.094;27.994;2023-03-11T10:11:44;84821.94;;;39.53;15.58
73974;BME280;62336;-26.094;27.994;2023-03-11T10:14:09;84817.76;;;39.59;15.89
73974;BME280;62336;-26.094;27.994;2023-03-11T10:16:26;84816.54;;;39.68;15.82
73974;BME280;62336;-26.094;27.994;2023-03-11T10:18:55;84817.39;;;39.47;15.75
73974;BME280;62336;-26.094;27.994;2023-03-11T10:21:19;84814.99;;;39.16;15.35
73974;BME280;62336;-26.094;27.994;2023-03-11T10:23:48;84814.51;;;39.69;15.79
73974;BME280;62336;-26.094;27.994;2023-03-11T10:26:08;84812.75;;;39.79;15.33
73974;BME280;62336;-26.094;27.994;2023-03-11T10:28:32;84803.93;;;39.51;15.15
73974;BME280;62336;-26.094;27.994;2023-03-11T10:30:56;84809.61;;;39.77;15.59
73974;BME280;62336;-26.094;27.994;2023-03-11T10:33:22;84803.71;;;40.04;15.15
73974;BME280;62336;-26.094;27.994;2023-03-11T10:35:45;84804.04;;;39.90;15.15
73974;BME280;62336;-26.094;27.994;2023-03-11T10:38:13;84800.54;;;39.62;14.35
73974;BME280;62336;-26.094;27.994;2023-03-11T10:40:35;84796.77;;;39.91;14.80
73974;BME280;62336;-26.094;27.994;2023-03-11T10:43:02;84793.62;;;40.20;15.41
73974;BME280;62336;-26.094;27.994;2023-03-11T10:45:24;84786.50;;;40.22;15.43
73974;BME280;62336;-26.094;27.994;2023-03-11T10:47:48;84788.25;;;40.37;14.80
73974;BME280;62336;-26.094;27.994;2023-03-11T10:50:16;84786.68;;;40.53;14.78
73974;BME280;62336;-26.094;27.994;2023-03-11T10:52:43;84784.37;;;40.38;14.02
73974;BME280;62336;-26.094;27.994;2023-03-11T10:55:04;84780.69;;;40.35;14.26
73974;BME280;62336;-26.094;27.994;2023-03-11T10:57:34;84777.53;;;40.50;13.13
73974;BME280;62336;-26.094;27.994;2023-03-11T10:59:54;84771.17;;;40.62;13.06
73974;BME280;62336;-26.094;27.994;2023-03-11T11:02:24;84772.36;;;40.66;13.73
73974;BME280;62336;-26.094;27.994;2023-03-11T11:04:44;84772.49;;;40.54;13.67
73974;BME280;62336;-26.094;27.994;2023-03-11T11:07:19;84771.44;;;40.36;13.75
73974;BME280;62336;-26.094;27.994;2023-03-11T11:09:35;84767.60;;;40.24;13.81
73974;BME280;62336;-26.094;27.994;2023-03-11T11:12:03;84762.88;;;40.71;13.68
73974;BME280;62336;-26.094;27.994;2023-03-11T11:16:52;84764.76;;;40.73;13.60
73974;BME280;62336;-26.094;27.994;2023-03-11T11:19:17;84758.07;;;40.72;13.18
73974;BME280;62336;-26.094;27.994;2023-03-11T11:21:44;84755.53;;;40.44;13.49
73974;BME280;62336;-26.094;27.994;2023-03-11T11:24:16;84750.32;;;40.98;12.92
73974;BME280;62336;-26.094;27.994;2023-03-11T11:26:32;84752.39;;;40.77;14.09
73974;BME280;62336;-26.094;27.994;2023-03-11T11:29:04;84747.80;;;40.80;13.29
73974;BME280;62336;-26.094;27.994;2023-03-11T11:31:25;84741.61;;;40.45;12.59
73974;BME280;62336;-26.094;27.994;2023-03-11T11:33:50;84737.44;;;40.72;12.84
73974;BME280;62336;-26.094;27.994;2023-03-11T11:36:15;84737.44;;;40.93;12.63
73974;BME280;62336;-26.094;27.994;2023-03-11T11:38:39;84732.54;;;40.69;12.94
73974;BME280;62336;-26.094;27.994;2023-03-11T11:41:05;84732.43;;;41.02;12.93
73974;BME280;62336;-26.094;27.994;2023-03-11T11:43:41;84726.67;;;40.66;13.16
73974;BME280;62336;-26.094;27.994;2023-03-11T11:45:58;84727.04;;;41.13;12.85
73974;BME280;62336;-26.094;27.994;2023-03-11T11:48:23;84725.42;;;41.26;12.36
73974;BME280;62336;-26.094;27.994;2023-03-11T11:50:50;84720.18;;;41.43;12.54
73974;BME280;62336;-26.094;27.994;2023-03-11T11:53:19;84715.35;;;41.22;12.81
73974;BME280;62336;-26.094;27.994;2023-03-11T11:55:38;84710.68;;;40.96;12.47
73974;BME280;62336;-26.094;27.994;2023-03-11T11:58:01;84706.87;;;41.36;12.78
73974;BME280;62336;-26.094;27.994;2023-03-11T12:00:33;84704.69;;;41.58;13.03
73974;BME280;62336;-26.094;27.994;2023-03-11T12:03:03;84702.52;;;41.56;12.24
73974;BME280;62336;-26.094;27.994;2023-03-11T12:05:20;84696.83;;;41.45;11.98
73974;BME280;62336;-26.094;27.994;2023-03-11T12:07:53;84691.16;;;41.39;12.32
73974;BME280;62336;-26.094;27.994;2023-03-11T12:10:13;84688.49;;;41.56;11.77
73974;BME280;62336;-26.094;27.994;2023-03-11T12:12:35;84687.20;;;41.73;11.99
73974;BME280;62336;-26.094;27.994;2023-03-11T12:15:01;84685.45;;;41.92;14.64
73974;BME280;62336;-26.094;27.994;2023-03-11T12:17:24;84683.04;;;41.72;12.91
73974;BME280;62336;-26.094;27.994;2023-03-11T12:19:52;84677.98;;;41.79;12.60
73974;BME280;62336;-26.094;27.994;2023-03-11T12:22:26;84677.37;;;41.50;12.71
73974;BME280;62336;-26.094;27.994;2023-03-11T12:24:50;84674.61;;;41.74;12.03
73974;BME280;62336;-26.094;27.994;2023-03-11T12:27:06;84676.89;;;42.23;12.26
73974;BME280;62336;-26.094;27.994;2023-03-11T12:29:32;84671.26;;;41.83;12.29
73974;BME280;62336;-26.094;27.994;2023-03-11T12:31:53;84669.12;;;41.55;12.73
73974;BME280;62336;-26.094;27.994;2023-03-11T12:34:20;84666.08;;;41.87;11.98